TimeEDT,TemperatureF,Dew PointF,Humidity,Sea Level PressureIn,VisibilityMPH,Wind Direction,Wind SpeedMPH,Gust SpeedMPH,PrecipitationIn,Events,Conditions,WindDirDegrees,DateUTC
12:55 AM,75.4,73.9,95,30.14,10.0,SSW,6.9,-,N/A,,Mostly Cloudy,200,2012-10-04 04:55:00
1:55 AM,75.7,73.6,93,30.14,10.0,SSW,8.1,-,N/A,,Overcast,210,2012-10-04 05:55:00
2:55 AM,75.2,73.2,94,30.14,10.0,SW,6.9,-,N/A,,Mostly Cloudy,220,2012-10-04 06:55:00
3:01 AM,75.2,73.4,94,30.13,9.0,SW,6.9,-,N/A,,Scattered Clouds,220,2012-10-04 07:01:00
3:55 AM,73.8,73.0,98,30.13,8.0,WSW,6.9,-,N/A,,Clear,240,2012-10-04 07:55:00
4:55 AM,73.2,73.2,100,30.14,5.0,WSW,6.9,-,N/A,,Clear,240,2012-10-04 08:55:00
5:55 AM,72.5,72.5,100,30.15,5.0,SW,5.8,-,N/A,,Mostly Cloudy,230,2012-10-04 09:55:00
6:55 AM,72.5,72.5,100,30.17,7.0,SW,4.6,-,N/A,,Overcast,230,2012-10-04 10:55:00
6:56 AM,73.4,73.4,100,30.17,6.0,SW,4.6,-,N/A,,Overcast,230,2012-10-04 10:56:00
7:55 AM,73.0,73.0,100,30.17,7.0,Calm,Calm,-,0.00,Rain,Light Rain,0,2012-10-04 11:55:00
8:00 AM,73.4,73.4,100,30.17,7.0,SW,4.6,-,N/A,,Overcast,220,2012-10-04 12:00:00
8:07 AM,73.4,73.4,100,30.17,8.0,SW,4.6,-,N/A,Rain,Light Rain,220,2012-10-04 12:07:00
8:17 AM,73.4,73.4,100,30.17,9.0,SW,4.6,-,N/A,,Overcast,220,2012-10-04 12:17:00
8:55 AM,74.7,71.6,90,30.18,10.0,WSW,10.4,-,0.00,,Overcast,250,2012-10-04 12:55:00
9:55 AM,76.6,64.4,66,30.19,10.0,WSW,9.2,-,N/A,,Mostly Cloudy,250,2012-10-04 13:55:00
10:55 AM,79.5,57.7,47,30.19,10.0,WSW,9.2,-,N/A,,Scattered Clouds,240,2012-10-04 14:55:00
11:55 AM,81.7,54.3,39,30.17,10.0,WSW,9.2,-,N/A,,Scattered Clouds,240,2012-10-04 15:55:00
12:55 PM,81.1,50.5,34,30.16,10.0,West,11.5,-,N/A,,Mostly Cloudy,260,2012-10-04 16:55:00
1:55 PM,80.1,53.4,40,30.15,10.0,SW,19.6,25.3,N/A,,Scattered Clouds,230,2012-10-04 17:55:00
2:37 PM,78.8,55.4,44,30.10,10.0,WSW,13.8,-,N/A,,Scattered Clouds,240,2012-10-04 18:37:00
2:55 PM,78.1,54.7,44,30.11,10.0,SW,17.3,-,N/A,,Mostly Cloudy,230,2012-10-04 18:55:00
3:55 PM,77.7,52.9,42,30.11,10.0,WSW,12.7,-,N/A,,Mostly Cloudy,240,2012-10-04 19:55:00
4:55 PM,76.8,55.8,48,30.11,10.0,SW,10.4,-,N/A,,Mostly Cloudy,230,2012-10-04 20:55:00
5:55 PM,74.8,60.8,62,30.11,10.0,West,6.9,-,N/A,,Overcast,260,2012-10-04 21:55:00
6:55 PM,72.3,62.6,71,30.12,10.0,WSW,8.1,-,N/A,,Scattered Clouds,240,2012-10-04 22:55:00
7:55 PM,70.0,63.1,79,30.12,10.0,WSW,5.8,-,N/A,,Clear,240,2012-10-04 23:55:00
8:55 PM,69.4,64.4,84,30.13,10.0,WSW,8.1,-,N/A,,Clear,250,2012-10-05 00:55:00
9:55 PM,68.7,65.5,89,30.14,10.0,WSW,6.9,-,N/A,,Clear,250,2012-10-05 01:55:00
10:55 PM,67.3,65.7,95,30.14,10.0,West,3.5,-,N/A,,Clear,260,2012-10-05 02:55:00
11:20 PM,68.0,66.2,94,30.15,9.0,SW,5.8,-,N/A,,Clear,230,2012-10-05 03:20:00
11:55 PM,67.1,66.6,98,30.15,7.0,SW,5.8,-,N/A,,Clear,230,2012-10-05 03:55:00